sensor_id;sensor_type;location;lat;lon;timestamp;temperature;humidity
1415;DHT22;702;49.466;11.086;2024-03-17T00:01:18;5.80;78.50
1415;DHT22;702;49.466;11.086;2024-03-17T00:03:46;5.70;78.30
1415;DHT22;702;49.466;11.086;2024-03-17T00:06:12;5.40;78.60
1415;DHT22;702;49.466;11.086;2024-03-17T00:08:41;5.30;79.30
1415;DHT22;702;49.466;11.086;2024-03-17T00:11:07;5.20;79.60
1415;DHT22;702;49.466;11.086;2024-03-17T00:13:35;5.10;80.00
1415;DHT22;702;49.466;11.086;2024-03-17T00:16:01;5.00;80.40
1415;DHT22;702;49.466;11.086;2024-03-17T00:18:29;4.90;80.80
1415;DHT22;702;49.466;11.086;2024-03-17T00:20:55;4.80;81.00
1415;DHT22;702;49.466;11.086;2024-03-17T00:23:23;4.90;81.60
1415;DHT22;702;49.466;11.086;2024-03-17T00:25:51;4.90;81.60
1415;DHT22;702;49.466;11.086;2024-03-17T00:28:18;5.00;81.60
1415;DHT22;702;49.466;11.086;2024-03-17T00:30:46;5.10;81.10
1415;DHT22;702;49.466;11.086;2024-03-17T00:33:13;5.10;81.20
1415;DHT22;702;49.466;11.086;2024-03-17T00:35:40;5.10;81.00
1415;DHT22;702;49.466;11.086;2024-03-17T00:38:07;5.10;81.30
1415;DHT22;702;49.466;11.086;2024-03-17T00:40:36;5.10;81.50
1415;DHT22;702;49.466;11.086;2024-03-17T00:43:04;5.10;81.50
1415;DHT22;702;49.466;11.086;2024-03-17T00:45:31;5.10;82.00
1415;DHT22;702;49.466;11.086;2024-03-17T00:47:59;5.10;82.60
1415;DHT22;702;49.466;11.086;2024-03-17T00:50:25;5.20;82.30
1415;DHT22;702;49.466;11.086;2024-03-17T00:52:54;5.30;82.00
1415;DHT22;702;49.466;11.086;2024-03-17T00:55:20;5.30;81.50
1415;DHT22;702;49.466;11.086;2024-03-17T00:57:47;5.40;81.40
1415;DHT22;702;49.466;11.086;2024-03-17T01:00:17;5.50;81.20
1415;DHT22;702;49.466;11.086;2024-03-17T01:02:45;5.60;81.20
1415;DHT22;702;49.466;11.086;2024-03-17T01:05:12;5.60;81.40
1415;DHT22;702;49.466;11.086;2024-03-17T01:07:39;5.70;81.30
1415;DHT22;702;49.466;11.086;2024-03-17T01:10:06;5.70;81.30
1415;DHT22;702;49.466;11.086;2024-03-17T01:12:34;5.80;81.30
1415;DHT22;702;49.466;11.086;2024-03-17T01:15:03;5.80;81.20
1415;DHT22;702;49.466;11.086;2024-03-17T01:17:32;5.80;81.10
1415;DHT22;702;49.466;11.086;2024-03-17T01:19:59;5.80;81.00
1415;DHT22;702;49.466;11.086;2024-03-17T01:22:28;6.00;80.80
1415;DHT22;702;49.466;11.086;2024-03-17T01:24:54;6.00;80.10
1415;DHT22;702;49.466;11.086;2024-03-17T01:27:22;6.10;80.10
1415;DHT22;702;49.466;11.086;2024-03-17T01:29:48;6.00;80.00
1415;DHT22;702;49.466;11.086;2024-03-17T01:32:15;6.00;80.20
1415;DHT22;702;49.466;11.086;2024-03-17T01:34:43;6.10;80.50
1415;DHT22;702;49.466;11.086;2024-03-17T01:37:11;6.10;80.30
1415;DHT22;702;49.466;11.086;2024-03-17T01:39:38;6.10;80.30
1415;DHT22;702;49.466;11.086;2024-03-17T01:42:05;6.20;80.20
1415;DHT22;702;49.466;11.086;2024-03-17T01:44:33;6.20;80.20
1415;DHT22;702;49.466;11.086;2024-03-17T01:46:59;6.30;80.30
1415;DHT22;702;49.466;11.086;2024-03-17T01:49:29;6.30;80.00
1415;DHT22;702;49.466;11.086;2024-03-17T01:51:57;6.30;79.90
1415;DHT22;702;49.466;11.086;2024-03-17T01:54:25;6.30;80.40
1415;DHT22;702;49.466;11.086;2024-03-17T01:56:51;6.20;80.10
1415;DHT22;702;49.466;11.086;2024-03-17T01:59:19;6.10;80.40
1415;DHT22;702;49.466;11.086;2024-03-17T02:01:45;6.00;80.80
1415;DHT22;702;49.466;11.086;2024-03-17T02:04:12;6.10;80.90
1415;DHT22;702;49.466;11.086;2024-03-17T02:06:39;6.10;81.30
1415;DHT22;702;49.466;11.086;2024-03-17T02:09:08;6.10;81.20
1415;DHT22;702;49.466;11.086;2024-03-17T02:11:36;6.10;81.70
1415;DHT22;702;49.466;11.086;2024-03-17T02:14:03;6.10;81.80
1415;DHT22;702;49.466;11.086;2024-03-17T02:16:29;6.00;81.70
1415;DHT22;702;49.466;11.086;2024-03-17T02:18:57;6.00;81.80
1415;DHT22;702;49.466;11.086;2024-03-17T02:21:24;5.90;82.20
1415;DHT22;702;49.466;11.086;2024-03-17T02:23:55;6.00;82.70
1415;DHT22;702;49.466;11.086;2024-03-17T02:26:22;6.00;82.50
1415;DHT22;702;49.466;11.086;2024-03-17T02:28:49;5.90;82.50
1415;DHT22;702;49.466;11.086;2024-03-17T02:31:17;5.80;82.50
1415;DHT22;702;49.466;11.086;2024-03-17T02:33:45;5.70;82.70
1415;DHT22;702;49.466;11.086;2024-03-17T02:36:12;5.50;82.90
1415;DHT22;702;49.466;11.086;2024-03-17T02:38:40;5.40;83.20
1415;DHT22;702;49.466;11.086;2024-03-17T02:41:27;5.20;83.80
1415;DHT22;702;49.466;11.086;2024-03-17T02:43:55;5.10;84.80
1415;DHT22;702;49.466;11.086;2024-03-17T02:46:22;5.10;85.20
1415;DHT22;702;49.466;11.086;2024-03-17T02:48:51;5.00;85.70
1415;DHT22;702;49.466;11.086;2024-03-17T02:51:21;4.90;86.40
1415;DHT22;702;49.466;11.086;2024-03-17T02:53:50;4.80;86.90
1415;DHT22;702;49.466;11.086;2024-03-17T02:56:18;4.70;87.40
1415;DHT22;702;49.466;11.086;2024-03-17T02:58:47;4.60;87.90
1415;DHT22;702;49.466;11.086;2024-03-17T03:01:17;4.70;88.30
1415;DHT22;702;49.466;11.086;2024-03-17T03:03:46;4.60;88.40
1415;DHT22;702;49.466;11.086;2024-03-17T03:06:15;4.60;88.50
1415;DHT22;702;49.466;11.086;2024-03-17T03:08:45;4.60;88.90
1415;DHT22;702;49.466;11.086;2024-03-17T03:11:15;4.60;89.10
1415;DHT22;702;49.466;11.086;2024-03-17T03:13:45;4.50;89.30
1415;DHT22;702;49.466;11.086;2024-03-17T03:16:13;4.50;90.20
1415;DHT22;702;49.466;11.086;2024-03-17T03:18:41;4.50;90.60
1415;DHT22;702;49.466;11.086;2024-03-17T03:21:11;4.60;90.60
1415;DHT22;702;49.466;11.086;2024-03-17T03:23:39;4.60;90.80
1415;DHT22;702;49.466;11.086;2024-03-17T03:26:06;4.60;90.90
1415;DHT22;702;49.466;11.086;2024-03-17T03:28:35;4.60;90.80
1415;DHT22;702;49.466;11.086;2024-03-17T03:31:05;4.60;90.80
1415;DHT22;702;49.466;11.086;2024-03-17T03:33:33;4.70;91.10
1415;DHT22;702;49.466;11.086;2024-03-17T03:36:08;4.70;90.80
1415;DHT22;702;49.466;11.086;2024-03-17T03:38:36;4.70;91.00
1415;DHT22;702;49.466;11.086;2024-03-17T03:41:08;4.70;91.10
1415;DHT22;702;49.466;11.086;2024-03-17T03:43:35;4.70;91.30
1415;DHT22;702;49.466;11.086;2024-03-17T03:46:06;4.70;91.40
1415;DHT22;702;49.466;11.086;2024-03-17T03:48:34;4.70;91.50
1415;DHT22;702;49.466;11.086;2024-03-17T03:51:05;4.80;92.00
1415;DHT22;702;49.466;11.086;2024-03-17T03:53:33;4.80;92.10
1415;DHT22;702;49.466;11.086;2024-03-17T03:56:03;4.80;92.30
1415;DHT22;702;49.466;11.086;2024-03-17T03:58:33;4.80;92.20
1415;DHT22;702;49.466;11.086;2024-03-17T04:01:00;4.80;92.00
1415;DHT22;702;49.466;11.086;2024-03-17T04:03:33;4.80;92.10
1415;DHT22;702;49.466;11.086;2024-03-17T04:06:05;4.80;92.30
1415;DHT22;702;49.466;11.086;2024-03-17T04:08:33;4.90;92.20
1415;DHT22;702;49.466;11.086;2024-03-17T04:11:02;5.00;92.20
1415;DHT22;702;49.466;11.086;2024-03-17T04:13:30;5.00;92.00
1415;DHT22;702;49.466;11.086;2024-03-17T04:15:57;5.00;92.20
1415;DHT22;702;49.466;11.086;2024-03-17T04:18:26;5.10;92.00
1415;DHT22;702;49.466;11.086;2024-03-17T04:20:56;5.10;91.70
1415;DHT22;702;49.466;11.086;2024-03-17T04:23:24;5.10;91.60
1415;DHT22;702;49.466;11.086;2024-03-17T04:25:52;5.20;91.70
1415;DHT22;702;49.466;11.086;2024-03-17T04:28:20;5.20;91.50
1415;DHT22;702;49.466;11.086;2024-03-17T04:30:47;5.10;91.40
1415;DHT22;702;49.466;11.086;2024-03-17T04:33:14;5.20;91.30
1415;DHT22;702;49.466;11.086;2024-03-17T04:35:44;5.10;91.40
1415;DHT22;702;49.466;11.086;2024-03-17T04:38:11;5.10;91.60
1415;DHT22;702;49.466;11.086;2024-03-17T04:40:41;5.10;91.80
1415;DHT22;702;49.466;11.086;2024-03-17T04:43:08;5.10;91.80
1415;DHT22;702;49.466;11.086;2024-03-17T04:45:35;5.20;91.60
1415;DHT22;702;49.466;11.086;2024-03-17T04:48:04;5.20;91.50
1415;DHT22;702;49.466;11.086;2024-03-17T04:50:35;5.20;91.70
1415;DHT22;702;49.466;11.086;2024-03-17T04:53:04;5.30;91.40
1415;DHT22;702;49.466;11.086;2024-03-17T04:55:32;5.30;91.50
1415;DHT22;702;49.466;11.086;2024-03-17T04:57:59;5.20;91.30
1415;DHT22;702;49.466;11.086;2024-03-17T05:00:26;5.20;91.30
1415;DHT22;702;49.466;11.086;2024-03-17T05:02:54;5.10;91.70
1415;DHT22;702;49.466;11.086;2024-03-17T05:05:21;5.10;91.70
1415;DHT22;702;49.466;11.086;2024-03-17T05:07:49;5.10;91.90
1415;DHT22;702;49.466;11.086;2024-03-17T05:10:18;5.20;91.90
1415;DHT22;702;49.466;11.086;2024-03-17T05:12:45;5.10;91.90
1415;DHT22;702;49.466;11.086;2024-03-17T05:15:14;5.20;91.80
1415;DHT22;702;49.466;11.086;2024-03-17T05:17:41;5.20;92.00
1415;DHT22;702;49.466;11.086;2024-03-17T05:20:09;5.10;91.90
1415;DHT22;702;49.466;11.086;2024-03-17T05:22:39;5.10;92.50
1415;DHT22;702;49.466;11.086;2024-03-17T05:25:06;5.20;92.10
1415;DHT22;702;49.466;11.086;2024-03-17T05:27:36;5.20;92.20
1415;DHT22;702;49.466;11.086;2024-03-17T05:30:04;5.10;92.70
1415;DHT22;702;49.466;11.086;2024-03-17T05:32:34;5.00;92.90
1415;DHT22;702;49.466;11.086;2024-03-17T05:35:02;4.90;93.50
1415;DHT22;702;49.466;11.086;2024-03-17T05:37:29;5.00;93.90
1415;DHT22;702;49.466;11.086;2024-03-17T05:39:56;5.10;93.80
1415;DHT22;702;49.466;11.086;2024-03-17T05:42:24;5.20;93.30
1415;DHT22;702;49.466;11.086;2024-03-17T05:44:53;5.20;93.40
1415;DHT22;702;49.466;11.086;2024-03-17T05:47:20;5.30;92.90
1415;DHT22;702;49.466;11.086;2024-03-17T05:49:48;5.30;92.60
1415;DHT22;702;49.466;11.086;2024-03-17T05:52:16;5.10;93.30
1415;DHT22;702;49.466;11.086;2024-03-17T05:54:43;5.10;94.00
1415;DHT22;702;49.466;11.086;2024-03-17T05:57:10;5.20;94.30
1415;DHT22;702;49.466;11.086;2024-03-17T05:59:40;5.30;93.60
1415;DHT22;702;49.466;11.086;2024-03-17T06:02:09;5.30;93.10
1415;DHT22;702;49.466;11.086;2024-03-17T06:04:36;5.40;93.50
1415;DHT22;702;49.466;11.086;2024-03-17T06:07:05;5.50;92.70
1415;DHT22;702;49.466;11.086;2024-03-17T06:09:32;5.50;91.80
1415;DHT22;702;49.466;11.086;2024-03-17T06:11:59;5.40;91.80
1415;DHT22;702;49.466;11.086;2024-03-17T06:14:27;5.40;92.20
1415;DHT22;702;49.466;11.086;2024-03-17T06:16:55;5.40;92.80
1415;DHT22;702;49.466;11.086;2024-03-17T06:19:24;5.50;92.40
1415;DHT22;702;49.466;11.086;2024-03-17T06:21:51;5.50;91.80
1415;DHT22;702;49.466;11.086;2024-03-17T06:24:18;5.70;92.10
1415;DHT22;702;49.466;11.086;2024-03-17T06:26:46;5.80;91.70
1415;DHT22;702;49.466;11.086;2024-03-17T06:29:14;5.60;91.50
1415;DHT22;702;49.466;11.086;2024-03-17T06:31:41;5.60;91.60
1415;DHT22;702;49.466;11.086;2024-03-17T06:34:11;5.70;91.40
1415;DHT22;702;49.466;11.086;2024-03-17T06:36:42;5.80;91.80
1415;DHT22;702;49.466;11.086;2024-03-17T06:39:09;5.80;91.10
1415;DHT22;702;49.466;11.086;2024-03-17T06:41:37;5.80;91.50
1415;DHT22;702;49.466;11.086;2024-03-17T06:44:04;6.00;91.40
1415;DHT22;702;49.466;11.086;2024-03-17T06:46:32;6.20;91.50
1415;DHT22;702;49.466;11.086;2024-03-17T06:48:59;6.30;90.70
1415;DHT22;702;49.466;11.086;2024-03-17T06:51:27;6.10;89.90
1415;DHT22;702;49.466;11.086;2024-03-17T06:53:56;5.90;90.40
1415;DHT22;702;49.466;11.086;2024-03-17T06:56:24;6.10;90.90
1415;DHT22;702;49.466;11.086;2024-03-17T06:58:52;6.40;90.40
1415;DHT22;702;49.466;11.086;2024-03-17T07:01:19;6.50;89.50
1415;DHT22;702;49.466;11.086;2024-03-17T07:03:46;6.60;89.20
1415;DHT22;702;49.466;11.086;2024-03-17T07:06:15;6.60;88.30
1415;DHT22;702;49.466;11.086;2024-03-17T07:08:42;6.70;88.40
1415;DHT22;702;49.466;11.086;2024-03-17T07:11:11;6.90;87.60
1415;DHT22;702;49.466;11.086;2024-03-17T07:13:39;7.10;87.20
1415;DHT22;702;49.466;11.086;2024-03-17T07:16:07;7.20;86.40
1415;DHT22;702;49.466;11.086;2024-03-17T07:18:38;7.20;86.40
1415;DHT22;702;49.466;11.086;2024-03-17T07:21:05;7.40;85.80
1415;DHT22;702;49.466;11.086;2024-03-17T07:23:35;7.50;85.70
1415;DHT22;702;49.466;11.086;2024-03-17T07:26:07;7.40;85.50
1415;DHT22;702;49.466;11.086;2024-03-17T07:28:37;7.40;85.40
1415;DHT22;702;49.466;11.086;2024-03-17T07:31:08;7.30;85.20
1415;DHT22;702;49.466;11.086;2024-03-17T07:33:35;7.40;85.80
1415;DHT22;702;49.466;11.086;2024-03-17T07:36:03;7.60;85.70
1415;DHT22;702;49.466;11.086;2024-03-17T07:38:33;7.50;84.70
1415;DHT22;702;49.466;11.086;2024-03-17T07:41:03;7.60;85.50
1415;DHT22;702;49.466;11.086;2024-03-17T07:43:33;7.60;85.30
1415;DHT22;702;49.466;11.086;2024-03-17T07:46:03;7.90;84.80
1415;DHT22;702;49.466;11.086;2024-03-17T07:48:33;8.20;84.10
1415;DHT22;702;49.466;11.086;2024-03-17T07:51:03;8.30;83.80
1415;DHT22;702;49.466;11.086;2024-03-17T07:53:32;8.40;83.50
1415;DHT22;702;49.466;11.086;2024-03-17T07:56:02;8.30;83.50
1415;DHT22;702;49.466;11.086;2024-03-17T07:58:31;8.00;83.00
1415;DHT22;702;49.466;11.086;2024-03-17T08:01:02;7.90;83.60
1415;DHT22;702;49.466;11.086;2024-03-17T08:03:31;7.90;83.90
1415;DHT22;702;49.466;11.086;2024-03-17T08:06:00;8.20;83.40
1415;DHT22;702;49.466;11.086;2024-03-17T08:08:30;8.50;83.50
1415;DHT22;702;49.466;11.086;2024-03-17T08:11:01;8.70;82.50
1415;DHT22;702;49.466;11.086;2024-03-17T08:13:29;8.80;82.20
1415;DHT22;702;49.466;11.086;2024-03-17T08:16:02;9.00;82.20
1415;DHT22;702;49.466;11.086;2024-03-17T08:18:32;9.10;82.10
1415;DHT22;702;49.466;11.086;2024-03-17T08:21:00;9.10;81.30
1415;DHT22;702;49.466;11.086;2024-03-17T08:23:30;9.10;80.70
1415;DHT22;702;49.466;11.086;2024-03-17T08:25:58;8.80;81.10
1415;DHT22;702;49.466;11.086;2024-03-17T08:28:27;8.70;81.60
1415;DHT22;702;49.466;11.086;2024-03-17T08:30:56;8.80;81.30
1415;DHT22;702;49.466;11.086;2024-03-17T08:33:26;8.90;81.10
1415;DHT22;702;49.466;11.086;2024-03-17T08:35:55;9.10;80.60
1415;DHT22;702;49.466;11.086;2024-03-17T08:38:24;9.00;80.40
1415;DHT22;702;49.466;11.086;2024-03-17T08:40:54;9.10;80.50
1415;DHT22;702;49.466;11.086;2024-03-17T08:43:22;9.10;79.70
1415;DHT22;702;49.466;11.086;2024-03-17T08:45:55;8.90;79.70
1415;DHT22;702;49.466;11.086;2024-03-17T08:48:26;8.90;80.00
1415;DHT22;702;49.466;11.086;2024-03-17T08:50:55;9.00;80.20
1415;DHT22;702;49.466;11.086;2024-03-17T08:53:23;9.30;79.50
1415;DHT22;702;49.466;11.086;2024-03-17T08:55:51;9.40;78.90
1415;DHT22;702;49.466;11.086;2024-03-17T08:58:19;9.30;77.20
1415;DHT22;702;49.466;11.086;2024-03-17T09:00:47;9.40;77.00
1415;DHT22;702;49.466;11.086;2024-03-17T09:03:15;9.60;75.70
1415;DHT22;702;49.466;11.086;2024-03-17T09:05:46;9.80;74.30
1415;DHT22;702;49.466;11.086;2024-03-17T09:08:16;9.90;73.50
1415;DHT22;702;49.466;11.086;2024-03-17T09:10:48;10.10;70.80
1415;DHT22;702;49.466;11.086;2024-03-17T09:13:17;10.30;70.40
1415;DHT22;702;49.466;11.086;2024-03-17T09:15:53;10.30;69.00
1415;DHT22;702;49.466;11.086;2024-03-17T09:18:22;10.40;69.90
1415;DHT22;702;49.466;11.086;2024-03-17T09:21:01;10.40;70.70
1415;DHT22;702;49.466;11.086;2024-03-17T09:23:31;10.70;70.00
1415;DHT22;702;49.466;11.086;2024-03-17T09:26:01;10.80;68.80
1415;DHT22;702;49.466;11.086;2024-03-17T09:28:32;10.80;68.20
1415;DHT22;702;49.466;11.086;2024-03-17T09:31:00;11.00;67.10
1415;DHT22;702;49.466;11.086;2024-03-17T09:33:36;11.10;67.30
1415;DHT22;702;49.466;11.086;2024-03-17T09:36:07;11.50;67.30
1415;DHT22;702;49.466;11.086;2024-03-17T09:38:37;11.70;67.00
1415;DHT22;702;49.466;11.086;2024-03-17T09:41:07;12.20;65.60
1415;DHT22;702;49.466;11.086;2024-03-17T09:43:35;12.30;62.50
1415;DHT22;702;49.466;11.086;2024-03-17T09:46:04;12.10;60.20
1415;DHT22;702;49.466;11.086;2024-03-17T09:48:31;12.20;59.40
1415;DHT22;702;49.466;11.086;2024-03-17T09:51:01;12.20;59.10
1415;DHT22;702;49.466;11.086;2024-03-17T09:53:33;12.40;58.40
1415;DHT22;702;49.466;11.086;2024-03-17T09:56:10;12.50;58.70
1415;DHT22;702;49.466;11.086;2024-03-17T09:58:39;12.50;58.80
1415;DHT22;702;49.466;11.086;2024-03-17T10:01:08;12.90;58.70
1415;DHT22;702;49.466;11.086;2024-03-17T10:03:39;12.90;58.20
1415;DHT22;702;49.466;11.086;2024-03-17T10:06:12;12.60;58.30
1415;DHT22;702;49.466;11.086;2024-03-17T10:08:44;12.50;58.20
1415;DHT22;702;49.466;11.086;2024-03-17T10:11:17;12.40;58.10
1415;DHT22;702;49.466;11.086;2024-03-17T10:13:46;12.30;57.70
1415;DHT22;702;49.466;11.086;2024-03-17T10:16:26;12.50;58.40
1415;DHT22;702;49.466;11.086;2024-03-17T10:19:06;12.60;57.70
1415;DHT22;702;49.466;11.086;2024-03-17T10:21:36;12.60;57.30
1415;DHT22;702;49.466;11.086;2024-03-17T10:24:10;12.80;57.50
1415;DHT22;702;49.466;11.086;2024-03-17T10:26:43;12.50;57.10
1415;DHT22;702;49.466;11.086;2024-03-17T10:29:31;12.20;57.40
1415;DHT22;702;49.466;11.086;2024-03-17T10:32:03;12.30;57.90
1415;DHT22;702;49.466;11.086;2024-03-17T10:34:32;12.60;57.60
1415;DHT22;702;49.466;11.086;2024-03-17T10:37:08;12.80;57.20
1415;DHT22;702;49.466;11.086;2024-03-17T10:39:39;13.10;57.00
1415;DHT22;702;49.466;11.086;2024-03-17T10:42:08;13.40;56.70
1415;DHT22;702;49.466;11.086;2024-03-17T10:44:38;13.50;57.10
1415;DHT22;702;49.466;11.086;2024-03-17T10:47:07;13.40;57.10
1415;DHT22;702;49.466;11.086;2024-03-17T10:49:38;13.20;56.20
1415;DHT22;702;49.466;11.086;2024-03-17T10:52:07;12.90;56.70
1415;DHT22;702;49.466;11.086;2024-03-17T10:54:35;12.90;56.50
1415;DHT22;702;49.466;11.086;2024-03-17T10:57:16;12.90;56.50
1415;DHT22;702;49.466;11.086;2024-03-17T10:59:53;12.90;57.10
1415;DHT22;702;49.466;11.086;2024-03-17T11:02:22;13.00;57.40
1415;DHT22;702;49.466;11.086;2024-03-17T11:04:50;12.90;56.90
1415;DHT22;702;49.466;11.086;2024-03-17T11:07:19;12.80;57.00
1415;DHT22;702;49.466;11.086;2024-03-17T11:09:49;12.90;57.20
1415;DHT22;702;49.466;11.086;2024-03-17T11:12:44;13.00;57.00
1415;DHT22;702;49.466;11.086;2024-03-17T11:15:36;13.10;57.30
1415;DHT22;702;49.466;11.086;2024-03-17T11:18:28;13.40;57.50
1415;DHT22;702;49.466;11.086;2024-03-17T11:21:05;13.60;56.50
1415;DHT22;702;49.466;11.086;2024-03-17T11:23:42;13.70;56.30
1415;DHT22;702;49.466;11.086;2024-03-17T11:26:10;13.60;56.60
1415;DHT22;702;49.466;11.086;2024-03-17T11:28:46;13.70;56.50
1415;DHT22;702;49.466;11.086;2024-03-17T11:31:33;13.70;56.40
1415;DHT22;702;49.466;11.086;2024-03-17T11:34:34;13.50;56.70
1415;DHT22;702;49.466;11.086;2024-03-17T11:37:03;13.40;57.40
1415;DHT22;702;49.466;11.086;2024-03-17T11:39:51;13.50;57.00
1415;DHT22;702;49.466;11.086;2024-03-17T11:42:23;13.60;57.10
1415;DHT22;702;49.466;11.086;2024-03-17T11:45:04;13.80;57.20
1415;DHT22;702;49.466;11.086;2024-03-17T11:47:40;13.90;56.60
1415;DHT22;702;49.466;11.086;2024-03-17T11:50:08;14.00;56.80
1415;DHT22;702;49.466;11.086;2024-03-17T11:52:40;13.90;56.20
1415;DHT22;702;49.466;11.086;2024-03-17T11:55:17;13.50;56.70
1415;DHT22;702;49.466;11.086;2024-03-17T11:57:45;13.10;56.60
1415;DHT22;702;49.466;11.086;2024-03-17T12:00:23;12.80;56.80
1415;DHT22;702;49.466;11.086;2024-03-17T12:02:52;13.30;56.90
1415;DHT22;702;49.466;11.086;2024-03-17T12:05:18;13.50;56.60
1415;DHT22;702;49.466;11.086;2024-03-17T12:07:47;13.80;56.70
1415;DHT22;702;49.466;11.086;2024-03-17T12:10:13;13.90;56.70
1415;DHT22;702;49.466;11.086;2024-03-17T12:12:47;14.10;56.90
1415;DHT22;702;49.466;11.086;2024-03-17T12:15:19;14.10;56.50
1415;DHT22;702;49.466;11.086;2024-03-17T12:17:53;14.20;56.30
1415;DHT22;702;49.466;11.086;2024-03-17T12:20:21;14.50;55.90
1415;DHT22;702;49.466;11.086;2024-03-17T12:22:49;14.60;56.00
1415;DHT22;702;49.466;11.086;2024-03-17T12:25:18;14.30;55.90
1415;DHT22;702;49.466;11.086;2024-03-17T12:27:48;14.10;56.30
1415;DHT22;702;49.466;11.086;2024-03-17T12:30:15;14.50;56.40
1415;DHT22;702;49.466;11.086;2024-03-17T12:32:44;14.70;56.10
1415;DHT22;702;49.466;11.086;2024-03-17T12:35:16;14.90;56.20
1415;DHT22;702;49.466;11.086;2024-03-17T12:37:44;14.90;55.50
1415;DHT22;702;49.466;11.086;2024-03-17T12:40:21;14.80;54.60
1415;DHT22;702;49.466;11.086;2024-03-17T12:42:50;14.90;54.80
1415;DHT22;702;49.466;11.086;2024-03-17T12:45:21;15.10;54.70
1415;DHT22;702;49.466;11.086;2024-03-17T12:47:49;15.00;55.30
1415;DHT22;702;49.466;11.086;2024-03-17T12:50:18;14.90;55.20
1415;DHT22;702;49.466;11.086;2024-03-17T12:52:53;14.60;55.00
1415;DHT22;702;49.466;11.086;2024-03-17T12:55:20;14.50;56.00
1415;DHT22;702;49.466;11.086;2024-03-17T12:58:06;14.40;55.50
1415;DHT22;702;49.466;11.086;2024-03-17T13:00:59;14.60;55.50
1415;DHT22;702;49.466;11.086;2024-03-17T13:03:27;14.60;55.80
1415;DHT22;702;49.466;11.086;2024-03-17T13:05:59;14.40;55.20
1415;DHT22;702;49.466;11.086;2024-03-17T13:08:28;14.30;55.40
1415;DHT22;702;49.466;11.086;2024-03-17T13:10:58;14.30;55.20
1415;DHT22;702;49.466;11.086;2024-03-17T13:13:26;14.40;55.30
1415;DHT22;702;49.466;11.086;2024-03-17T13:15:54;14.40;55.30
1415;DHT22;702;49.466;11.086;2024-03-17T13:18:22;14.40;55.20
1415;DHT22;702;49.466;11.086;2024-03-17T13:20:49;14.40;55.00
1415;DHT22;702;49.466;11.086;2024-03-17T13:23:18;14.50;55.10
1415;DHT22;702;49.466;11.086;2024-03-17T13:25:47;14.70;54.90
1415;DHT22;702;49.466;11.086;2024-03-17T13:28:15;14.40;54.80
1415;DHT22;702;49.466;11.086;2024-03-17T13:30:42;14.10;55.70
1415;DHT22;702;49.466;11.086;2024-03-17T13:33:10;14.30;55.40
1415;DHT22;702;49.466;11.086;2024-03-17T13:35:39;14.40;55.50
1415;DHT22;702;49.466;11.086;2024-03-17T13:38:08;14.20;55.40
1415;DHT22;702;49.466;11.086;2024-03-17T13:40:39;14.10;55.80
1415;DHT22;702;49.466;11.086;2024-03-17T13:43:09;14.00;55.60
1415;DHT22;702;49.466;11.086;2024-03-17T13:45:39;14.00;55.80
1415;DHT22;702;49.466;11.086;2024-03-17T13:48:08;14.00;55.50
1415;DHT22;702;49.466;11.086;2024-03-17T13:50:37;14.10;55.40
1415;DHT22;702;49.466;11.086;2024-03-17T13:53:08;14.20;55.60
1415;DHT22;702;49.466;11.086;2024-03-17T13:55:37;14.30;55.40
1415;DHT22;702;49.466;11.086;2024-03-17T13:58:05;14.40;55.30
1415;DHT22;702;49.466;11.086;2024-03-17T14:00:33;14.50;55.10
1415;DHT22;702;49.466;11.086;2024-03-17T14:03:04;14.40;55.00
1415;DHT22;702;49.466;11.086;2024-03-17T14:05:34;14.40;55.20
1415;DHT22;702;49.466;11.086;2024-03-17T14:08:02;14.30;55.10
1415;DHT22;702;49.466;11.086;2024-03-17T14:10:30;14.50;55.10
1415;DHT22;702;49.466;11.086;2024-03-17T14:12:59;14.60;55.00
1415;DHT22;702;49.466;11.086;2024-03-17T14:15:26;14.70;55.00
1415;DHT22;702;49.466;11.086;2024-03-17T14:17:54;14.60;55.20
1415;DHT22;702;49.466;11.086;2024-03-17T14:20:21;14.70;54.90
1415;DHT22;702;49.466;11.086;2024-03-17T14:22:49;14.80;55.20
1415;DHT22;702;49.466;11.086;2024-03-17T14:25:20;14.90;55.20
1415;DHT22;702;49.466;11.086;2024-03-17T14:27:48;14.80;54.90
1415;DHT22;702;49.466;11.086;2024-03-17T14:30:18;14.50;55.60
1415;DHT22;702;49.466;11.086;2024-03-17T14:32:46;14.50;55.40
1415;DHT22;702;49.466;11.086;2024-03-17T14:35:15;14.30;55.60
1415;DHT22;702;49.466;11.086;2024-03-17T14:37:43;14.30;55.60
1415;DHT22;702;49.466;11.086;2024-03-17T14:40:14;14.30;55.80
1415;DHT22;702;49.466;11.086;2024-03-17T14:42:47;14.20;55.80
1415;DHT22;702;49.466;11.086;2024-03-17T14:45:17;14.00;55.50
1415;DHT22;702;49.466;11.086;2024-03-17T14:47:44;13.70;55.60
1415;DHT22;702;49.466;11.086;2024-03-17T14:50:12;13.70;56.10
1415;DHT22;702;49.466;11.086;2024-03-17T14:52:42;13.70;56.60
1415;DHT22;702;49.466;11.086;2024-03-17T14:55:10;13.80;56.00
1415;DHT22;702;49.466;11.086;2024-03-17T14:57:39;13.70;55.90
1415;DHT22;702;49.466;11.086;2024-03-17T15:00:08;13.60;56.00
1415;DHT22;702;49.466;11.086;2024-03-17T15:02:43;13.80;56.00
1415;DHT22;702;49.466;11.086;2024-03-17T15:05:11;13.70;55.80
1415;DHT22;702;49.466;11.086;2024-03-17T15:07:40;13.60;55.80
1415;DHT22;702;49.466;11.086;2024-03-17T15:10:08;13.60;55.90
1415;DHT22;702;49.466;11.086;2024-03-17T15:12:35;13.60;55.90
1415;DHT22;702;49.466;11.086;2024-03-17T15:15:03;13.40;56.10
1415;DHT22;702;49.466;11.086;2024-03-17T15:17:34;13.30;56.30
1415;DHT22;702;49.466;11.086;2024-03-17T15:20:04;13.20;56.80
1415;DHT22;702;49.466;11.086;2024-03-17T15:22:42;13.10;56.60
1415;DHT22;702;49.466;11.086;2024-03-17T15:25:11;13.10;56.40
1415;DHT22;702;49.466;11.086;2024-03-17T15:27:40;13.10;56.30
1415;DHT22;702;49.466;11.086;2024-03-17T15:30:12;13.00;56.90
1415;DHT22;702;49.466;11.086;2024-03-17T15:32:41;13.10;56.70
1415;DHT22;702;49.466;11.086;2024-03-17T15:35:11;13.00;56.70
1415;DHT22;702;49.466;11.086;2024-03-17T15:37:40;13.00;56.40
1415;DHT22;702;49.466;11.086;2024-03-17T15:40:08;13.00;56.50
1415;DHT22;702;49.466;11.086;2024-03-17T15:42:43;13.00;56.40
1415;DHT22;702;49.466;11.086;2024-03-17T15:45:11;13.10;57.00
1415;DHT22;702;49.466;11.086;2024-03-17T15:47:39;13.00;56.60
1415;DHT22;702;49.466;11.086;2024-03-17T15:50:07;12.90;56.20
1415;DHT22;702;49.466;11.086;2024-03-17T15:52:36;12.80;56.60
1415;DHT22;702;49.466;11.086;2024-03-17T15:55:04;12.70;56.40
1415;DHT22;702;49.466;11.086;2024-03-17T15:57:32;12.70;56.90
1415;DHT22;702;49.466;11.086;2024-03-17T15:59:59;12.70;56.50
1415;DHT22;702;49.466;11.086;2024-03-17T16:02:28;12.80;56.80
1415;DHT22;702;49.466;11.086;2024-03-17T16:04:55;12.80;56.40
1415;DHT22;702;49.466;11.086;2024-03-17T16:07:24;12.70;56.40
1415;DHT22;702;49.466;11.086;2024-03-17T16:09:53;12.60;56.60
1415;DHT22;702;49.466;11.086;2024-03-17T16:12:20;12.60;56.40
1415;DHT22;702;49.466;11.086;2024-03-17T16:14:49;12.40;56.50
1415;DHT22;702;49.466;11.086;2024-03-17T16:17:18;12.40;56.50
1415;DHT22;702;49.466;11.086;2024-03-17T16:19:47;12.40;56.60
1415;DHT22;702;49.466;11.086;2024-03-17T16:22:16;12.40;56.50
1415;DHT22;702;49.466;11.086;2024-03-17T16:24:44;12.30;56.60